sensor_id;sensor_type;location;lat;lon;timestamp;P1;durP1;ratioP1;P2;durP2;ratioP2
79128;SDS011;68529;43.286;23.360;2024-02-28T00:01:36;63.53;;;34.33;;
79128;SDS011;68529;43.286;23.360;2024-02-28T00:04:01;50.90;;;29.67;;
79128;SDS011;68529;43.286;23.360;2024-02-28T00:06:27;44.03;;;28.23;;
79128;SDS011;68529;43.286;23.360;2024-02-28T00:08:52;50.37;;;30.13;;
79128;SDS011;68529;43.286;23.360;2024-02-28T00:11:19;54.40;;;29.90;;
79128;SDS011;68529;43.286;23.360;2024-02-28T00:13:45;47.27;;;29.50;;
79128;SDS011;68529;43.286;23.360;2024-02-28T00:16:10;47.80;;;30.50;;
79128;SDS011;68529;43.286;23.360;2024-02-28T00:18:36;46.97;;;30.60;;
79128;SDS011;68529;43.286;23.360;2024-02-28T00:21:02;52.37;;;30.57;;
79128;SDS011;68529;43.286;23.360;2024-02-28T00:23:28;55.43;;;31.83;;
79128;SDS011;68529;43.286;23.360;2024-02-28T00:25:54;49.17;;;30.50;;
79128;SDS011;68529;43.286;23.360;2024-02-28T00:28:20;48.83;;;31.47;;
79128;SDS011;68529;43.286;23.360;2024-02-28T00:30:46;48.63;;;29.40;;
79128;SDS011;68529;43.286;23.360;2024-02-28T00:33:11;39.17;;;27.40;;
79128;SDS011;68529;43.286;23.360;2024-02-28T00:35:36;47.97;;;29.37;;
79128;SDS011;68529;43.286;23.360;2024-02-28T00:38:02;50.07;;;30.70;;
79128;SDS011;68529;43.286;23.360;2024-02-28T00:40:28;47.77;;;28.33;;
79128;SDS011;68529;43.286;23.360;2024-02-28T00:42:53;51.03;;;28.87;;
79128;SDS011;68529;43.286;23.360;2024-02-28T00:45:20;49.53;;;28.87;;
79128;SDS011;68529;43.286;23.360;2024-02-28T00:47:45;54.03;;;31.70;;
79128;SDS011;68529;43.286;23.360;2024-02-28T00:50:10;48.93;;;29.43;;
79128;SDS011;68529;43.286;23.360;2024-02-28T00:52:36;53.93;;;32.23;;
79128;SDS011;68529;43.286;23.360;2024-02-28T00:55:01;40.93;;;25.87;;
79128;SDS011;68529;43.286;23.360;2024-02-28T00:57:28;48.27;;;29.47;;
79128;SDS011;68529;43.286;23.360;2024-02-28T00:59:53;44.93;;;30.07;;
79128;SDS011;68529;43.286;23.360;2024-02-28T01:02:19;48.87;;;28.53;;
79128;SDS011;68529;43.286;23.360;2024-02-28T01:04:45;42.50;;;28.10;;
79128;SDS011;68529;43.286;23.360;2024-02-28T01:07:11;37.13;;;27.03;;
79128;SDS011;68529;43.286;23.360;2024-02-28T01:09:36;38.23;;;25.23;;
79128;SDS011;68529;43.286;23.360;2024-02-28T01:12:01;38.73;;;25.87;;
79128;SDS011;68529;43.286;23.360;2024-02-28T01:14:27;33.53;;;24.77;;
79128;SDS011;68529;43.286;23.360;2024-02-28T01:16:52;33.23;;;24.50;;
79128;SDS011;68529;43.286;23.360;2024-02-28T01:19:18;38.60;;;27.53;;
79128;SDS011;68529;43.286;23.360;2024-02-28T01:21:43;37.63;;;26.97;;
79128;SDS011;68529;43.286;23.360;2024-02-28T01:24:08;38.40;;;26.97;;
79128;SDS011;68529;43.286;23.360;2024-02-28T01:26:34;36.83;;;25.53;;
79128;SDS011;68529;43.286;23.360;2024-02-28T01:28:59;36.67;;;25.73;;
79128;SDS011;68529;43.286;23.360;2024-02-28T01:31:24;37.27;;;24.43;;
79128;SDS011;68529;43.286;23.360;2024-02-28T01:33:50;37.00;;;24.40;;
79128;SDS011;68529;43.286;23.360;2024-02-28T01:36:15;42.47;;;26.43;;
79128;SDS011;68529;43.286;23.360;2024-02-28T01:38:41;37.37;;;27.00;;
79128;SDS011;68529;43.286;23.360;2024-02-28T01:41:06;50.60;;;28.47;;
79128;SDS011;68529;43.286;23.360;2024-02-28T01:43:32;56.80;;;29.03;;
79128;SDS011;68529;43.286;23.360;2024-02-28T01:46:01;61.20;;;27.67;;
79128;SDS011;68529;43.286;23.360;2024-02-28T01:48:29;44.47;;;27.87;;
79128;SDS011;68529;43.286;23.360;2024-02-28T01:50:55;75.30;;;28.40;;
79128;SDS011;68529;43.286;23.360;2024-02-28T01:53:21;44.70;;;25.93;;
79128;SDS011;68529;43.286;23.360;2024-02-28T01:55:47;45.57;;;27.37;;
79128;SDS011;68529;43.286;23.360;2024-02-28T01:58:13;57.33;;;28.77;;
79128;SDS011;68529;43.286;23.360;2024-02-28T02:00:38;39.67;;;24.70;;
79128;SDS011;68529;43.286;23.360;2024-02-28T02:03:05;47.60;;;28.13;;
79128;SDS011;68529;43.286;23.360;2024-02-28T02:05:30;45.30;;;31.57;;
79128;SDS011;68529;43.286;23.360;2024-02-28T02:07:57;46.17;;;28.70;;
79128;SDS011;68529;43.286;23.360;2024-02-28T02:10:23;49.13;;;28.30;;
79128;SDS011;68529;43.286;23.360;2024-02-28T02:12:50;48.57;;;29.90;;
79128;SDS011;68529;43.286;23.360;2024-02-28T02:15:15;51.67;;;30.13;;
79128;SDS011;68529;43.286;23.360;2024-02-28T02:17:40;51.13;;;31.97;;
79128;SDS011;68529;43.286;23.360;2024-02-28T02:20:06;52.23;;;31.40;;
79128;SDS011;68529;43.286;23.360;2024-02-28T02:22:36;42.17;;;27.70;;
79128;SDS011;68529;43.286;23.360;2024-02-28T02:25:03;46.60;;;29.80;;
79128;SDS011;68529;43.286;23.360;2024-02-28T02:27:29;49.13;;;27.93;;
79128;SDS011;68529;43.286;23.360;2024-02-28T02:29:54;45.90;;;27.43;;
79128;SDS011;68529;43.286;23.360;2024-02-28T02:32:20;38.67;;;24.90;;
79128;SDS011;68529;43.286;23.360;2024-02-28T02:34:45;38.63;;;25.07;;
79128;SDS011;68529;43.286;23.360;2024-02-28T02:37:10;39.47;;;27.03;;
79128;SDS011;68529;43.286;23.360;2024-02-28T02:39:36;47.70;;;27.03;;
79128;SDS011;68529;43.286;23.360;2024-02-28T02:42:01;44.47;;;28.33;;
79128;SDS011;68529;43.286;23.360;2024-02-28T02:44:27;44.10;;;27.90;;
79128;SDS011;68529;43.286;23.360;2024-02-28T02:46:52;43.00;;;27.30;;
79128;SDS011;68529;43.286;23.360;2024-02-28T02:49:17;45.73;;;27.83;;
79128;SDS011;68529;43.286;23.360;2024-02-28T02:51:43;46.80;;;28.97;;
79128;SDS011;68529;43.286;23.360;2024-02-28T02:54:09;47.07;;;29.23;;
79128;SDS011;68529;43.286;23.360;2024-02-28T02:56:34;50.70;;;30.70;;
79128;SDS011;68529;43.286;23.360;2024-02-28T02:59:00;48.10;;;28.17;;
79128;SDS011;68529;43.286;23.360;2024-02-28T03:01:25;47.50;;;28.97;;
79128;SDS011;68529;43.286;23.360;2024-02-28T03:03:51;54.27;;;31.13;;
79128;SDS011;68529;43.286;23.360;2024-02-28T03:06:17;55.57;;;31.37;;
79128;SDS011;68529;43.286;23.360;2024-02-28T03:08:42;52.00;;;30.07;;
79128;SDS011;68529;43.286;23.360;2024-02-28T03:11:08;43.63;;;27.47;;
79128;SDS011;68529;43.286;23.360;2024-02-28T03:13:33;54.70;;;29.90;;
79128;SDS011;68529;43.286;23.360;2024-02-28T03:15:59;47.40;;;28.00;;
79128;SDS011;68529;43.286;23.360;2024-02-28T03:18:24;43.27;;;25.27;;
79128;SDS011;68529;43.286;23.360;2024-02-28T03:20:50;47.10;;;27.73;;
79128;SDS011;68529;43.286;23.360;2024-02-28T03:23:15;53.77;;;29.50;;
79128;SDS011;68529;43.286;23.360;2024-02-28T03:25:40;51.50;;;30.77;;
79128;SDS011;68529;43.286;23.360;2024-02-28T03:28:06;48.17;;;29.33;;
79128;SDS011;68529;43.286;23.360;2024-02-28T03:30:31;46.07;;;28.40;;
79128;SDS011;68529;43.286;23.360;2024-02-28T03:32:57;46.03;;;26.83;;
79128;SDS011;68529;43.286;23.360;2024-02-28T03:35:22;44.67;;;27.90;;
79128;SDS011;68529;43.286;23.360;2024-02-28T03:37:48;41.73;;;25.87;;
79128;SDS011;68529;43.286;23.360;2024-02-28T03:40:13;47.20;;;27.73;;
79128;SDS011;68529;43.286;23.360;2024-02-28T03:42:39;35.43;;;23.67;;
79128;SDS011;68529;43.286;23.360;2024-02-28T03:45:05;51.40;;;29.53;;
79128;SDS011;68529;43.286;23.360;2024-02-28T03:47:31;47.70;;;27.17;;
79128;SDS011;68529;43.286;23.360;2024-02-28T03:49:56;41.63;;;27.37;;
79128;SDS011;68529;43.286;23.360;2024-02-28T03:52:22;42.93;;;27.37;;
79128;SDS011;68529;43.286;23.360;2024-02-28T03:54:48;47.23;;;27.03;;
79128;SDS011;68529;43.286;23.360;2024-02-28T03:57:14;44.97;;;26.70;;
79128;SDS011;68529;43.286;23.360;2024-02-28T03:59:40;48.60;;;27.43;;
79128;SDS011;68529;43.286;23.360;2024-02-28T04:02:06;43.00;;;26.73;;
79128;SDS011;68529;43.286;23.360;2024-02-28T04:04:31;39.30;;;24.77;;
79128;SDS011;68529;43.286;23.360;2024-02-28T04:06:57;43.93;;;27.23;;
79128;SDS011;68529;43.286;23.360;2024-02-28T04:09:22;49.50;;;28.17;;
79128;SDS011;68529;43.286;23.360;2024-02-28T04:11:47;43.43;;;25.67;;
79128;SDS011;68529;43.286;23.360;2024-02-28T04:14:13;42.27;;;25.53;;
79128;SDS011;68529;43.286;23.360;2024-02-28T04:16:42;35.90;;;22.27;;
79128;SDS011;68529;43.286;23.360;2024-02-28T04:19:11;49.90;;;29.93;;
79128;SDS011;68529;43.286;23.360;2024-02-28T04:21:37;44.00;;;28.90;;
79128;SDS011;68529;43.286;23.360;2024-02-28T04:24:02;49.20;;;31.90;;
79128;SDS011;68529;43.286;23.360;2024-02-28T04:26:28;42.20;;;27.47;;
79128;SDS011;68529;43.286;23.360;2024-02-28T04:28:54;44.57;;;27.63;;
79128;SDS011;68529;43.286;23.360;2024-02-28T04:31:21;48.27;;;28.67;;
79128;SDS011;68529;43.286;23.360;2024-02-28T04:33:46;46.77;;;26.30;;
79128;SDS011;68529;43.286;23.360;2024-02-28T04:36:12;43.43;;;27.17;;
79128;SDS011;68529;43.286;23.360;2024-02-28T04:38:37;45.90;;;27.40;;
79128;SDS011;68529;43.286;23.360;2024-02-28T04:41:02;45.47;;;27.10;;
79128;SDS011;68529;43.286;23.360;2024-02-28T04:43:28;46.37;;;27.87;;
79128;SDS011;68529;43.286;23.360;2024-02-28T04:45:53;40.40;;;25.23;;
79128;SDS011;68529;43.286;23.360;2024-02-28T04:48:19;36.40;;;23.00;;
79128;SDS011;68529;43.286;23.360;2024-02-28T04:50:44;43.47;;;24.07;;
79128;SDS011;68529;43.286;23.360;2024-02-28T04:53:09;45.87;;;26.60;;
79128;SDS011;68529;43.286;23.360;2024-02-28T04:55:35;41.23;;;25.90;;
79128;SDS011;68529;43.286;23.360;2024-02-28T04:58:00;38.03;;;24.80;;
79128;SDS011;68529;43.286;23.360;2024-02-28T05:00:26;38.40;;;23.93;;
79128;SDS011;68529;43.286;23.360;2024-02-28T05:02:51;45.57;;;26.80;;
79128;SDS011;68529;43.286;23.360;2024-02-28T05:05:17;48.07;;;28.80;;
79128;SDS011;68529;43.286;23.360;2024-02-28T05:07:42;47.13;;;26.33;;
79128;SDS011;68529;43.286;23.360;2024-02-28T05:10:08;44.67;;;27.00;;
79128;SDS011;68529;43.286;23.360;2024-02-28T05:12:33;45.03;;;26.80;;
79128;SDS011;68529;43.286;23.360;2024-02-28T05:14:59;55.80;;;31.03;;
79128;SDS011;68529;43.286;23.360;2024-02-28T05:17:24;44.83;;;26.43;;
79128;SDS011;68529;43.286;23.360;2024-02-28T05:19:50;41.80;;;24.93;;
79128;SDS011;68529;43.286;23.360;2024-02-28T05:22:15;47.53;;;27.73;;
79128;SDS011;68529;43.286;23.360;2024-02-28T05:24:40;48.83;;;27.77;;
79128;SDS011;68529;43.286;23.360;2024-02-28T05:27:08;41.30;;;24.83;;
79128;SDS011;68529;43.286;23.360;2024-02-28T05:29:34;51.50;;;28.67;;
79128;SDS011;68529;43.286;23.360;2024-02-28T05:31:59;45.97;;;26.40;;
79128;SDS011;68529;43.286;23.360;2024-02-28T05:34:25;43.33;;;26.23;;
79128;SDS011;68529;43.286;23.360;2024-02-28T05:36:50;44.03;;;27.07;;
79128;SDS011;68529;43.286;23.360;2024-02-28T05:39:15;46.47;;;27.87;;
79128;SDS011;68529;43.286;23.360;2024-02-28T05:41:41;46.13;;;27.77;;
79128;SDS011;68529;43.286;23.360;2024-02-28T05:44:06;47.13;;;28.20;;
79128;SDS011;68529;43.286;23.360;2024-02-28T05:46:31;47.50;;;27.70;;
79128;SDS011;68529;43.286;23.360;2024-02-28T05:48:57;45.70;;;27.70;;
79128;SDS011;68529;43.286;23.360;2024-02-28T05:51:22;42.37;;;26.60;;
79128;SDS011;68529;43.286;23.360;2024-02-28T05:53:48;44.17;;;25.47;;
79128;SDS011;68529;43.286;23.360;2024-02-28T05:56:13;51.57;;;28.90;;
79128;SDS011;68529;43.286;23.360;2024-02-28T05:58:39;49.80;;;28.60;;
79128;SDS011;68529;43.286;23.360;2024-02-28T06:01:09;47.40;;;27.60;;
79128;SDS011;68529;43.286;23.360;2024-02-28T06:03:35;47.20;;;28.30;;
79128;SDS011;68529;43.286;23.360;2024-02-28T06:06:03;44.50;;;27.13;;
79128;SDS011;68529;43.286;23.360;2024-02-28T06:08:33;41.80;;;27.47;;
79128;SDS011;68529;43.286;23.360;2024-02-28T06:11:00;38.63;;;25.50;;
79128;SDS011;68529;43.286;23.360;2024-02-28T06:13:26;46.27;;;27.40;;
79128;SDS011;68529;43.286;23.360;2024-02-28T06:15:52;51.70;;;31.67;;
79128;SDS011;68529;43.286;23.360;2024-02-28T06:18:18;53.50;;;30.37;;
79128;SDS011;68529;43.286;23.360;2024-02-28T06:20:43;40.73;;;24.13;;
79128;SDS011;68529;43.286;23.360;2024-02-28T06:23:08;45.20;;;29.47;;
79128;SDS011;68529;43.286;23.360;2024-02-28T06:25:34;47.23;;;28.73;;
79128;SDS011;68529;43.286;23.360;2024-02-28T06:28:00;48.50;;;29.20;;
79128;SDS011;68529;43.286;23.360;2024-02-28T06:30:28;50.60;;;31.57;;
79128;SDS011;68529;43.286;23.360;2024-02-28T06:32:53;45.70;;;28.03;;
79128;SDS011;68529;43.286;23.360;2024-02-28T06:35:19;42.60;;;27.00;;
79128;SDS011;68529;43.286;23.360;2024-02-28T06:37:44;43.13;;;25.93;;
79128;SDS011;68529;43.286;23.360;2024-02-28T06:40:14;44.33;;;25.97;;
79128;SDS011;68529;43.286;23.360;2024-02-28T06:42:40;38.33;;;25.23;;
79128;SDS011;68529;43.286;23.360;2024-02-28T06:45:06;37.80;;;24.53;;
79128;SDS011;68529;43.286;23.360;2024-02-28T06:47:32;39.97;;;25.37;;
79128;SDS011;68529;43.286;23.360;2024-02-28T06:49:58;36.13;;;23.90;;
79128;SDS011;68529;43.286;23.360;2024-02-28T06:52:23;38.83;;;25.73;;
79128;SDS011;68529;43.286;23.360;2024-02-28T06:54:48;38.73;;;23.07;;
79128;SDS011;68529;43.286;23.360;2024-02-28T06:57:14;35.93;;;25.47;;
79128;SDS011;68529;43.286;23.360;2024-02-28T06:59:39;32.20;;;21.13;;
79128;SDS011;68529;43.286;23.360;2024-02-28T07:02:04;39.20;;;25.33;;
79128;SDS011;68529;43.286;23.360;2024-02-28T07:04:30;39.37;;;25.13;;
79128;SDS011;68529;43.286;23.360;2024-02-28T07:06:55;41.23;;;25.03;;
79128;SDS011;68529;43.286;23.360;2024-02-28T07:09:21;35.37;;;24.77;;
79128;SDS011;68529;43.286;23.360;2024-02-28T07:11:46;39.03;;;25.10;;
79128;SDS011;68529;43.286;23.360;2024-02-28T07:14:11;33.20;;;23.00;;
79128;SDS011;68529;43.286;23.360;2024-02-28T07:16:37;34.30;;;22.73;;
79128;SDS011;68529;43.286;23.360;2024-02-28T07:19:02;35.37;;;22.67;;
79128;SDS011;68529;43.286;23.360;2024-02-28T07:21:27;35.70;;;25.07;;
79128;SDS011;68529;43.286;23.360;2024-02-28T07:23:53;33.67;;;24.17;;
79128;SDS011;68529;43.286;23.360;2024-02-28T07:26:19;36.67;;;25.33;;
79128;SDS011;68529;43.286;23.360;2024-02-28T07:28:44;29.43;;;21.67;;
79128;SDS011;68529;43.286;23.360;2024-02-28T07:31:17;43.43;;;28.13;;
79128;SDS011;68529;43.286;23.360;2024-02-28T07:33:43;32.60;;;24.47;;
79128;SDS011;68529;43.286;23.360;2024-02-28T07:36:09;42.07;;;25.83;;
79128;SDS011;68529;43.286;23.360;2024-02-28T07:38:35;51.70;;;31.60;;
79128;SDS011;68529;43.286;23.360;2024-02-28T07:41:00;44.17;;;30.07;;
79128;SDS011;68529;43.286;23.360;2024-02-28T07:43:26;42.47;;;28.70;;
79128;SDS011;68529;43.286;23.360;2024-02-28T07:45:53;39.00;;;25.87;;
79128;SDS011;68529;43.286;23.360;2024-02-28T07:48:19;39.17;;;25.30;;
79128;SDS011;68529;43.286;23.360;2024-02-28T07:50:44;41.70;;;26.00;;
79128;SDS011;68529;43.286;23.360;2024-02-28T07:53:10;41.13;;;28.00;;
79128;SDS011;68529;43.286;23.360;2024-02-28T07:55:37;47.83;;;27.80;;
79128;SDS011;68529;43.286;23.360;2024-02-28T07:58:03;36.17;;;25.57;;
79128;SDS011;68529;43.286;23.360;2024-02-28T08:00:30;39.53;;;25.97;;
79128;SDS011;68529;43.286;23.360;2024-02-28T08:02:58;39.03;;;25.50;;
79128;SDS011;68529;43.286;23.360;2024-02-28T08:05:23;38.93;;;24.53;;
79128;SDS011;68529;43.286;23.360;2024-02-28T08:07:48;36.47;;;25.13;;
79128;SDS011;68529;43.286;23.360;2024-02-28T08:10:14;33.57;;;24.17;;
79128;SDS011;68529;43.286;23.360;2024-02-28T08:12:40;34.93;;;22.13;;
79128;SDS011;68529;43.286;23.360;2024-02-28T08:15:05;35.10;;;24.43;;
79128;SDS011;68529;43.286;23.360;2024-02-28T08:17:30;39.67;;;26.53;;
79128;SDS011;68529;43.286;23.360;2024-02-28T08:19:56;42.20;;;26.70;;
79128;SDS011;68529;43.286;23.360;2024-02-28T08:22:21;35.37;;;25.10;;
79128;SDS011;68529;43.286;23.360;2024-02-28T08:24:47;35.77;;;23.60;;
79128;SDS011;68529;43.286;23.360;2024-02-28T08:27:15;36.10;;;24.90;;
79128;SDS011;68529;43.286;23.360;2024-02-28T08:29:41;36.93;;;25.87;;
79128;SDS011;68529;43.286;23.360;2024-02-28T08:32:09;30.30;;;22.57;;
79128;SDS011;68529;43.286;23.360;2024-02-28T08:34:35;45.03;;;28.27;;
79128;SDS011;68529;43.286;23.360;2024-02-28T08:37:01;38.90;;;26.70;;
79128;SDS011;68529;43.286;23.360;2024-02-28T08:39:26;35.87;;;26.10;;
79128;SDS011;68529;43.286;23.360;2024-02-28T08:41:51;43.10;;;27.77;;
79128;SDS011;68529;43.286;23.360;2024-02-28T08:44:17;32.33;;;22.37;;
79128;SDS011;68529;43.286;23.360;2024-02-28T08:46:42;43.27;;;26.57;;
79128;SDS011;68529;43.286;23.360;2024-02-28T08:49:08;44.47;;;30.17;;
79128;SDS011;68529;43.286;23.360;2024-02-28T08:51:34;29.40;;;22.13;;
79128;SDS011;68529;43.286;23.360;2024-02-28T08:53:59;30.57;;;22.37;;
79128;SDS011;68529;43.286;23.360;2024-02-28T08:56:25;33.57;;;25.77;;
79128;SDS011;68529;43.286;23.360;2024-02-28T08:58:50;69.33;;;44.77;;
79128;SDS011;68529;43.286;23.360;2024-02-28T09:01:16;41.97;;;26.73;;
79128;SDS011;68529;43.286;23.360;2024-02-28T09:03:41;39.20;;;28.03;;
79128;SDS011;68529;43.286;23.360;2024-02-28T09:06:07;37.40;;;24.67;;
79128;SDS011;68529;43.286;23.360;2024-02-28T09:08:32;31.13;;;23.10;;
79128;SDS011;68529;43.286;23.360;2024-02-28T09:10:58;35.07;;;24.87;;
79128;SDS011;68529;43.286;23.360;2024-02-28T09:13:23;29.07;;;22.73;;
79128;SDS011;68529;43.286;23.360;2024-02-28T09:15:49;33.33;;;22.60;;
79128;SDS011;68529;43.286;23.360;2024-02-28T09:18:14;28.97;;;22.73;;
79128;SDS011;68529;43.286;23.360;2024-02-28T09:20:39;31.70;;;24.30;;
79128;SDS011;68529;43.286;23.360;2024-02-28T09:23:05;29.87;;;21.37;;
79128;SDS011;68529;43.286;23.360;2024-02-28T09:25:31;28.20;;;19.67;;
79128;SDS011;68529;43.286;23.360;2024-02-28T09:27:58;31.73;;;23.57;;
79128;SDS011;68529;43.286;23.360;2024-02-28T09:30:25;28.07;;;22.23;;
79128;SDS011;68529;43.286;23.360;2024-02-28T09:32:50;35.67;;;23.83;;
79128;SDS011;68529;43.286;23.360;2024-02-28T09:35:16;34.97;;;24.60;;
79128;SDS011;68529;43.286;23.360;2024-02-28T09:37:41;33.37;;;24.17;;
79128;SDS011;68529;43.286;23.360;2024-02-28T09:40:08;33.23;;;24.67;;
79128;SDS011;68529;43.286;23.360;2024-02-28T09:42:35;30.00;;;22.60;;
79128;SDS011;68529;43.286;23.360;2024-02-28T09:45:01;28.70;;;20.50;;
79128;SDS011;68529;43.286;23.360;2024-02-28T09:47:28;32.57;;;24.40;;
79128;SDS011;68529;43.286;23.360;2024-02-28T09:49:53;37.13;;;24.53;;
79128;SDS011;68529;43.286;23.360;2024-02-28T09:52:25;30.87;;;23.17;;
79128;SDS011;68529;43.286;23.360;2024-02-28T09:54:53;30.30;;;22.73;;
79128;SDS011;68529;43.286;23.360;2024-02-28T09:57:19;25.80;;;19.77;;
79128;SDS011;68529;43.286;23.360;2024-02-28T09:59:45;29.90;;;21.57;;
79128;SDS011;68529;43.286;23.360;2024-02-28T10:02:12;23.93;;;18.70;;
79128;SDS011;68529;43.286;23.360;2024-02-28T10:04:42;31.63;;;21.80;;
79128;SDS011;68529;43.286;23.360;2024-02-28T10:07:11;29.03;;;21.57;;
79128;SDS011;68529;43.286;23.360;2024-02-28T10:09:40;32.97;;;22.50;;
79128;SDS011;68529;43.286;23.360;2024-02-28T10:12:06;31.23;;;21.47;;
79128;SDS011;68529;43.286;23.360;2024-02-28T10:14:31;34.53;;;22.93;;
79128;SDS011;68529;43.286;23.360;2024-02-28T10:16:57;32.37;;;22.27;;
79128;SDS011;68529;43.286;23.360;2024-02-28T10:19:22;34.27;;;24.03;;
79128;SDS011;68529;43.286;23.360;2024-02-28T10:21:47;32.77;;;23.33;;
79128;SDS011;68529;43.286;23.360;2024-02-28T10:24:13;34.13;;;23.40;;
79128;SDS011;68529;43.286;23.360;2024-02-28T10:26:45;34.17;;;24.53;;
79128;SDS011;68529;43.286;23.360;2024-02-28T10:29:20;36.13;;;25.10;;
79128;SDS011;68529;43.286;23.360;2024-02-28T10:31:49;36.13;;;23.20;;
79128;SDS011;68529;43.286;23.360;2024-02-28T10:34:17;31.47;;;23.67;;
79128;SDS011;68529;43.286;23.360;2024-02-28T10:36:43;31.80;;;24.30;;
79128;SDS011;68529;43.286;23.360;2024-02-28T10:39:10;29.23;;;23.70;;
79128;SDS011;68529;43.286;23.360;2024-02-28T10:41:37;31.00;;;22.17;;
79128;SDS011;68529;43.286;23.360;2024-02-28T10:44:04;32.43;;;23.33;;
79128;SDS011;68529;43.286;23.360;2024-02-28T10:46:30;35.43;;;24.60;;
79128;SDS011;68529;43.286;23.360;2024-02-28T10:48:56;35.30;;;24.13;;
79128;SDS011;68529;43.286;23.360;2024-02-28T10:51:25;35.40;;;24.30;;
79128;SDS011;68529;43.286;23.360;2024-02-28T10:54:10;31.20;;;21.93;;
79128;SDS011;68529;43.286;23.360;2024-02-28T10:56:37;36.77;;;23.23;;
79128;SDS011;68529;43.286;23.360;2024-02-28T10:59:05;31.30;;;24.63;;
79128;SDS011;68529;43.286;23.360;2024-02-28T11:01:42;31.23;;;23.57;;
79128;SDS011;68529;43.286;23.360;2024-02-28T11:04:09;32.23;;;23.53;;
79128;SDS011;68529;43.286;23.360;2024-02-28T11:06:51;31.20;;;23.10;;
79128;SDS011;68529;43.286;23.360;2024-02-28T11:09:19;38.07;;;24.53;;
79128;SDS011;68529;43.286;23.360;2024-02-28T11:11:49;33.03;;;22.90;;
79128;SDS011;68529;43.286;23.360;2024-02-28T11:14:18;33.43;;;22.77;;
79128;SDS011;68529;43.286;23.360;2024-02-28T11:16:47;31.40;;;22.53;;
79128;SDS011;68529;43.286;23.360;2024-02-28T11:19:20;27.07;;;21.33;;
79128;SDS011;68529;43.286;23.360;2024-02-28T11:21:53;29.13;;;20.90;;
79128;SDS011;68529;43.286;23.360;2024-02-28T11:24:22;32.70;;;23.33;;
79128;SDS011;68529;43.286;23.360;2024-02-28T11:26:54;32.53;;;23.43;;
79128;SDS011;68529;43.286;23.360;2024-02-28T11:29:23;31.97;;;23.80;;
79128;SDS011;68529;43.286;23.360;2024-02-28T11:31:49;31.47;;;22.10;;
79128;SDS011;68529;43.286;23.360;2024-02-28T11:34:14;31.97;;;22.17;;
79128;SDS011;68529;43.286;23.360;2024-02-28T11:36:40;31.70;;;22.13;;
79128;SDS011;68529;43.286;23.360;2024-02-28T11:39:06;31.53;;;22.50;;
79128;SDS011;68529;43.286;23.360;2024-02-28T11:41:31;34.00;;;23.53;;
79128;SDS011;68529;43.286;23.360;2024-02-28T11:43:57;32.07;;;23.43;;
79128;SDS011;68529;43.286;23.360;2024-02-28T11:46:23;33.80;;;23.10;;
79128;SDS011;68529;43.286;23.360;2024-02-28T11:48:49;31.00;;;23.17;;
79128;SDS011;68529;43.286;23.360;2024-02-28T11:51:14;33.70;;;22.50;;
79128;SDS011;68529;43.286;23.360;2024-02-28T11:53:40;31.07;;;22.47;;
79128;SDS011;68529;43.286;23.360;2024-02-28T11:56:05;33.80;;;22.93;;
79128;SDS011;68529;43.286;23.360;2024-02-28T11:58:33;29.50;;;20.83;;
79128;SDS011;68529;43.286;23.360;2024-02-28T12:00:58;28.93;;;21.63;;
79128;SDS011;68529;43.286;23.360;2024-02-28T12:03:24;30.43;;;22.40;;
79128;SDS011;68529;43.286;23.360;2024-02-28T12:05:54;33.47;;;23.67;;
79128;SDS011;68529;43.286;23.360;2024-02-28T12:08:20;27.30;;;22.40;;
79128;SDS011;68529;43.286;23.360;2024-02-28T12:10:46;29.80;;;23.17;;
79128;SDS011;68529;43.286;23.360;2024-02-28T12:13:19;27.63;;;20.97;;
79128;SDS011;68529;43.286;23.360;2024-02-28T12:15:45;29.47;;;20.67;;
79128;SDS011;68529;43.286;23.360;2024-02-28T12:18:11;32.03;;;22.17;;
79128;SDS011;68529;43.286;23.360;2024-02-28T12:20:36;27.67;;;19.80;;
79128;SDS011;68529;43.286;23.360;2024-02-28T12:23:03;27.53;;;21.93;;
79128;SDS011;68529;43.286;23.360;2024-02-28T12:25:29;31.23;;;23.53;;
79128;SDS011;68529;43.286;23.360;2024-02-28T12:27:55;32.60;;;23.53;;
79128;SDS011;68529;43.286;23.360;2024-02-28T12:30:20;28.60;;;23.10;;
79128;SDS011;68529;43.286;23.360;2024-02-28T12:32:45;30.30;;;22.17;;
79128;SDS011;68529;43.286;23.360;2024-02-28T12:35:11;34.70;;;24.90;;
79128;SDS011;68529;43.286;23.360;2024-02-28T12:37:36;28.73;;;22.27;;
79128;SDS011;68529;43.286;23.360;2024-02-28T12:40:02;28.10;;;19.97;;
79128;SDS011;68529;43.286;23.360;2024-02-28T12:42:29;26.23;;;20.30;;
79128;SDS011;68529;43.286;23.360;2024-02-28T12:44:55;37.57;;;31.77;;
79128;SDS011;68529;43.286;23.360;2024-02-28T12:47:21;28.70;;;22.73;;
79128;SDS011;68529;43.286;23.360;2024-02-28T12:49:46;28.67;;;22.53;;
79128;SDS011;68529;43.286;23.360;2024-02-28T12:52:11;26.90;;;21.90;;
79128;SDS011;68529;43.286;23.360;2024-02-28T12:54:37;27.50;;;20.47;;
79128;SDS011;68529;43.286;23.360;2024-02-28T12:57:02;27.13;;;21.90;;
79128;SDS011;68529;43.286;23.360;2024-02-28T12:59:30;25.37;;;21.80;;
79128;SDS011;68529;43.286;23.360;2024-02-28T13:01:55;26.77;;;21.90;;
79128;SDS011;68529;43.286;23.360;2024-02-28T13:04:21;29.43;;;22.70;;
79128;SDS011;68529;43.286;23.360;2024-02-28T13:06:46;29.73;;;21.83;;
79128;SDS011;68529;43.286;23.360;2024-02-28T13:09:11;26.60;;;21.17;;
79128;SDS011;68529;43.286;23.360;2024-02-28T13:11:38;27.67;;;21.23;;
79128;SDS011;68529;43.286;23.360;2024-02-28T13:14:04;28.17;;;22.87;;
79128;SDS011;68529;43.286;23.360;2024-02-28T13:16:30;29.47;;;21.67;;
79128;SDS011;68529;43.286;23.360;2024-02-28T13:18:55;26.50;;;20.20;;
79128;SDS011;68529;43.286;23.360;2024-02-28T13:21:21;26.23;;;20.67;;
79128;SDS011;68529;43.286;23.360;2024-02-28T13:23:46;26.27;;;19.87;;
79128;SDS011;68529;43.286;23.360;2024-02-28T13:26:12;26.77;;;21.37;;
79128;SDS011;68529;43.286;23.360;2024-02-28T13:28:43;24.93;;;20.50;;
79128;SDS011;68529;43.286;23.360;2024-02-28T13:31:09;27.13;;;21.43;;
79128;SDS011;68529;43.286;23.360;2024-02-28T13:33:34;27.47;;;20.23;;
79128;SDS011;68529;43.286;23.360;2024-02-28T13:36:02;27.60;;;21.60;;
79128;SDS011;68529;43.286;23.360;2024-02-28T13:38:27;27.33;;;21.60;;
79128;SDS011;68529;43.286;23.360;2024-02-28T13:40:53;33.97;;;22.97;;
79128;SDS011;68529;43.286;23.360;2024-02-28T13:43:18;32.10;;;22.47;;
79128;SDS011;68529;43.286;23.360;2024-02-28T13:45:48;27.30;;;20.93;;
79128;SDS011;68529;43.286;23.360;2024-02-28T13:48:16;31.27;;;21.43;;
79128;SDS011;68529;43.286;23.360;2024-02-28T13:50:46;28.30;;;20.23;;
79128;SDS011;68529;43.286;23.360;2024-02-28T13:53:12;25.33;;;20.60;;
79128;SDS011;68529;43.286;23.360;2024-02-28T13:55:39;27.37;;;19.90;;
79128;SDS011;68529;43.286;23.360;2024-02-28T13:58:04;26.57;;;21.17;;
79128;SDS011;68529;43.286;23.360;2024-02-28T14:00:31;25.73;;;21.50;;
79128;SDS011;68529;43.286;23.360;2024-02-28T14:02:56;28.50;;;21.00;;